Time;durP1;ratioP1;P1;durP2;ratioP2;P2;SDS_P1;SDS_P2;PMS_P1;PMS_P2;Temp;Humidity;BMP_temperature;BMP_pressure;BME280_temperature;BME280_humidity;BME280_pressure;Samples;Min_cycle;Max_cycle;Signal;HPM_P1;HPM_P2
2023/06/15 00:00:26;;;;;;;7.05;4.00;;;18.90;70.40;;;;;;6276113;28;20676;-80
2023/06/15 00:03:28;;;;;;;7.07;3.83;;;18.90;70.90;;;;;;6256518;28;20379;-79
2023/06/15 00:06:29;;;;;;;6.57;3.83;;;18.80;69.90;;;;;;6252081;28;20057;-79
2023/06/15 00:09:31;;;;;;;8.52;4.00;;;18.80;70.50;;;;;;6251080;28;20038;-81
2023/06/15 00:12:33;;;;;;;6.47;3.85;;;18.70;70.80;;;;;;6283261;28;20046;-80
2023/06/15 00:15:39;;;;;;;7.63;4.20;;;18.60;71.50;;;;;;6251338;28;20450;-80
2023/06/15 00:18:40;;;;;;;6.55;4.00;;;18.50;72.10;;;;;;6252008;28;20049;-79
2023/06/15 00:21:43;;;;;;;7.43;3.90;;;18.50;72.20;;;;;;6251569;28;20053;-80
2023/06/15 00:24:45;;;;;;;6.27;4.27;;;18.50;72.10;;;;;;6251587;28;20056;-79
2023/06/15 00:27:47;;;;;;;6.22;4.07;;;18.40;72.10;;;;;;6272484;28;20053;-79
2023/06/15 00:30:50;;;;;;;6.95;4.10;;;18.10;72.70;;;;;;6258159;28;20056;-80
2023/06/15 00:33:52;;;;;;;5.70;3.92;;;18.00;73.50;;;;;;6251511;28;20045;-79
2023/06/15 00:36:54;;;;;;;5.93;3.95;;;18.00;73.60;;;;;;6250977;28;20045;-80
2023/06/15 00:39:56;;;;;;;8.13;4.10;;;18.00;74.00;;;;;;6250458;28;20228;-80
2023/06/15 00:42:59;;;;;;;6.07;4.03;;;18.10;73.70;;;;;;6250872;28;20050;-81
2023/06/15 00:46:02;;;;;;;7.13;4.40;;;18.10;73.90;;;;;;6251108;28;20430;-81
2023/06/15 00:49:05;;;;;;;8.57;4.15;;;18.10;74.00;;;;;;6250370;28;20056;-82
2023/06/15 00:52:07;;;;;;;9.90;4.20;;;18.10;73.50;;;;;;6251347;28;20045;-80
2023/06/15 00:55:12;;;;;;;6.03;4.00;;;18.10;73.90;;;;;;6250530;28;20045;-80
2023/06/15 00:58:14;;;;;;;6.63;4.07;;;18.00;74.20;;;;;;6250786;28;20777;-81
2023/06/15 01:01:17;;;;;;;7.55;4.47;;;18.00;74.70;;;;;;6255840;28;20056;-81
2023/06/15 01:04:20;;;;;;;6.30;4.10;;;18.00;74.80;;;;;;6256911;28;20479;-81
2023/06/15 01:07:27;;;;;;;6.97;3.75;;;18.10;74.20;;;;;;6254185;28;20053;-81
2023/06/15 01:10:31;;;;;;;6.85;4.43;;;18.10;73.70;;;;;;6251000;28;20080;-80
2023/06/15 01:13:34;;;;;;;7.15;4.10;;;17.90;74.40;;;;;;6250560;28;20203;-79
2023/06/15 01:16:43;;;;;;;6.32;4.00;;;17.90;74.60;;;;;;6250463;28;20053;-80
2023/06/15 01:19:57;;;;;;;8.32;4.55;;;17.90;74.60;;;;;;6259864;28;20048;-81
2023/06/15 01:23:10;;;;;;;5.78;4.10;;;17.90;74.50;;;;;;6253419;28;20048;-81
2023/06/15 01:26:16;;;;;;;6.00;4.00;;;17.80;75.20;;;;;;6249081;28;20187;-81
2023/06/15 01:29:21;;;;;;;7.20;4.20;;;17.80;75.10;;;;;;6249947;28;20053;-80
2023/06/15 01:32:23;;;;;;;5.95;3.97;;;17.70;75.00;;;;;;6265748;28;20045;-79
2023/06/15 01:35:24;;;;;;;6.32;4.55;;;17.60;75.80;;;;;;6274638;28;20526;-79
2023/06/15 01:38:29;;;;;;;8.25;4.32;;;17.20;76.30;;;;;;6260844;28;20050;-79
2023/06/15 01:41:34;;;;;;;11.15;5.13;;;17.00;77.20;;;;;;6249626;28;20046;-78
2023/06/15 01:44:36;;;;;;;9.40;4.95;;;16.90;77.30;;;;;;6260432;28;20056;-80
2023/06/15 01:47:40;;;;;;;7.45;5.13;;;16.90;78.00;;;;;;6272797;28;20045;-80
2023/06/15 01:50:42;;;;;;;6.53;4.82;;;17.00;78.10;;;;;;6265061;28;20483;-82
2023/06/15 01:53:45;;;;;;;8.13;5.05;;;17.00;77.90;;;;;;6249630;28;20502;-81
2023/06/15 01:56:48;;;;;;;8.77;4.97;;;17.00;78.10;;;;;;6249027;28;20053;-81
2023/06/15 01:59:51;;;;;;;8.93;4.93;;;17.00;78.20;;;;;;6249257;28;20510;-81
2023/06/15 02:02:53;;;;;;;7.25;4.65;;;17.00;78.30;;;;;;6249388;28;20061;-81
2023/06/15 02:05:55;;;;;;;6.85;4.57;;;16.90;78.50;;;;;;6249096;28;20071;-81
2023/06/15 02:08:56;;;;;;;7.00;4.88;;;17.00;78.60;;;;;;6249455;28;20057;-81
2023/06/15 02:12:00;;;;;;;8.23;4.68;;;17.10;78.30;;;;;;6249350;28;20054;-80
2023/06/15 02:15:02;;;;;;;7.07;4.70;;;17.10;77.80;;;;;;6255607;28;20501;-81
2023/06/15 02:18:07;;;;;;;6.88;4.63;;;17.10;78.30;;;;;;6262348;28;20060;-81
2023/06/15 02:21:08;;;;;;;8.75;4.40;;;17.10;78.50;;;;;;6248605;28;20595;-81
2023/06/15 02:24:10;;;;;;;6.15;4.30;;;16.90;78.80;;;;;;6247357;28;20046;-80
2023/06/15 02:27:13;;;;;;;11.20;4.75;;;16.90;79.20;;;;;;6248619;28;20056;-81
2023/06/15 02:30:15;;;;;;;6.40;4.32;;;16.80;79.30;;;;;;6249417;28;20052;-81
2023/06/15 02:33:17;;;;;;;6.57;4.38;;;16.70;79.60;;;;;;6249515;28;20076;-81
2023/06/15 02:36:20;;;;;;;6.93;4.70;;;16.60;79.80;;;;;;6249023;28;20045;-81
2023/06/15 02:39:22;;;;;;;8.52;4.72;;;16.80;80.00;;;;;;6247130;28;20041;-81
2023/06/15 02:42:25;;;;;;;6.80;4.63;;;16.90;79.60;;;;;;6251468;28;20049;-81
2023/06/15 02:45:27;;;;;;;7.13;4.40;;;16.80;79.90;;;;;;6266376;28;20049;-81
2023/06/15 02:48:29;;;;;;;7.70;4.70;;;16.90;79.70;;;;;;6248753;28;20042;-80
2023/06/15 02:51:32;;;;;;;7.47;4.65;;;16.90;79.60;;;;;;6248744;28;20056;-81
2023/06/15 02:54:36;;;;;;;6.70;4.53;;;16.80;79.60;;;;;;6247113;28;20045;-80
2023/06/15 02:57:40;;;;;;;6.35;4.50;;;16.80;79.90;;;;;;6247708;28;20050;-81
2023/06/15 03:00:46;;;;;;;6.50;4.13;;;16.60;80.20;;;;;;6247187;28;20096;-81
2023/06/15 03:03:48;;;;;;;6.53;4.78;;;16.40;80.80;;;;;;6248274;28;20094;-81
2023/06/15 03:06:50;;;;;;;7.53;4.65;;;16.10;81.60;;;;;;6247075;28;20045;-80
2023/06/15 03:09:52;;;;;;;7.22;4.53;;;16.20;82.00;;;;;;6247773;28;20049;-80
2023/06/15 03:12:56;;;;;;;7.65;4.50;;;16.30;81.80;;;;;;6270301;28;20107;-81
2023/06/15 03:16:00;;;;;;;7.47;4.38;;;16.30;82.00;;;;;;6248789;28;20041;-80
2023/06/15 03:19:02;;;;;;;6.10;4.40;;;16.30;81.90;;;;;;6260644;28;20045;-82
2023/06/15 03:22:07;;;;;;;6.70;4.57;;;16.30;81.90;;;;;;6268808;28;20510;-82
2023/06/15 03:25:11;;;;;;;6.78;4.20;;;16.40;81.90;;;;;;6249246;28;20053;-82
2023/06/15 03:28:14;;;;;;;8.45;4.70;;;16.30;81.70;;;;;;6250848;28;20476;-82
2023/06/15 03:31:18;;;;;;;9.70;4.30;;;16.30;82.60;;;;;;6273808;28;20053;-82
2023/06/15 03:34:20;;;;;;;9.23;4.70;;;16.30;82.00;;;;;;6258282;28;20380;-82
2023/06/15 03:37:22;;;;;;;8.68;4.65;;;16.20;82.00;;;;;;6248438;28;20050;-82
2023/06/15 03:40:24;;;;;;;6.57;4.40;;;16.20;82.10;;;;;;6269179;28;20056;-80
2023/06/15 03:43:27;;;;;;;7.03;4.72;;;16.20;81.90;;;;;;6272338;28;20057;-80
2023/06/15 03:46:29;;;;;;;6.82;4.72;;;16.10;82.30;;;;;;6258885;28;20056;-80
2023/06/15 03:49:31;;;;;;;7.13;4.85;;;16.20;82.70;;;;;;6247828;28;20049;-80
2023/06/15 03:52:35;;;;;;;7.13;4.57;;;16.30;82.60;;;;;;6247825;28;20045;-80
2023/06/15 03:55:37;;;;;;;6.28;4.20;;;16.30;82.00;;;;;;6268196;28;20051;-80
2023/06/15 03:58:40;;;;;;;8.52;4.82;;;16.10;82.20;;;;;;6273039;28;20502;-80
2023/06/15 04:01:44;;;;;;;7.90;4.93;;;16.00;82.80;;;;;;6254371;28;20046;-79
2023/06/15 04:04:46;;;;;;;;;;;15.90;83.20;;;;;;6247760;28;20530;-79
2023/06/15 04:07:47;;;;;;;8.95;4.40;;;15.90;83.50;;;;;;6264967;28;19921;-78
2023/06/15 04:10:50;;;;;;;7.35;4.72;;;15.90;83.70;;;;;;6248673;28;20415;-78
2023/06/15 04:13:53;;;;;;;7.53;5.00;;;15.80;84.00;;;;;;6254869;28;20132;-79
2023/06/15 04:16:55;;;;;;;9.57;4.47;;;15.70;84.70;;;;;;6275976;28;20473;-79
2023/06/15 04:19:57;;;;;;;6.32;4.70;;;15.70;85.00;;;;;;6276943;28;20049;-78
2023/06/15 04:22:58;;;;;;;6.07;4.72;;;15.60;85.20;;;;;;6272656;28;20048;-79
2023/06/15 04:26:01;;;;;;;7.05;5.13;;;15.60;85.60;;;;;;6278297;28;20049;-80
2023/06/15 04:29:04;;;;;;;9.63;5.00;;;15.50;86.20;;;;;;6277981;28;20620;-81
2023/06/15 04:32:07;;;;;;;8.70;5.15;;;15.50;86.40;;;;;;6265070;28;20053;-81
2023/06/15 04:35:09;;;;;;;8.00;5.70;;;15.50;86.40;;;;;;6254663;28;20053;-82
2023/06/15 04:38:12;;;;;;;7.50;5.10;;;15.50;86.40;;;;;;6252837;28;20049;-83
2023/06/15 04:41:16;;;;;;;6.70;5.13;;;15.60;86.70;;;;;;6253735;28;20127;-80
2023/06/15 04:44:19;;;;;;;10.95;5.80;;;15.70;86.50;;;;;;6252059;28;20058;-80
2023/06/15 04:47:21;;;;;;;7.80;5.60;;;15.60;86.40;;;;;;6251631;28;20075;-80
2023/06/15 04:50:23;;;;;;;8.20;5.70;;;15.60;86.90;;;;;;6251676;28;20384;-79
2023/06/15 04:53:25;;;;;;;9.93;5.40;;;15.50;87.40;;;;;;6251179;28;20128;-80
2023/06/15 04:56:27;;;;;;;8.10;5.78;;;15.50;88.00;;;;;;6250713;28;20056;-81
2023/06/15 04:59:30;;;;;;;10.13;5.65;;;15.50;88.30;;;;;;6251210;28;20049;-82
2023/06/15 05:02:32;;;;;;;9.27;5.30;;;15.50;88.70;;;;;;6231999;28;20046;-80
2023/06/15 05:05:34;;;;;;;8.68;5.40;;;15.40;89.00;;;;;;6228127;28;20050;-81
2023/06/15 05:08:37;;;;;;;8.20;5.63;;;15.40;90.00;;;;;;6252045;28;20041;-81
2023/06/15 05:11:38;;;;;;;8.90;5.87;;;15.50;90.30;;;;;;6250246;28;20471;-79
2023/06/15 05:14:42;;;;;;;9.25;5.30;;;15.60;90.60;;;;;;6250237;28;20052;-79
2023/06/15 05:17:43;;;;;;;9.15;5.57;;;15.50;90.50;;;;;;6250633;28;20056;-80
2023/06/15 05:20:46;;;;;;;7.35;5.28;;;15.60;90.70;;;;;;6251284;28;20049;-81
2023/06/15 05:23:48;;;;;;;9.50;5.68;;;15.70;90.70;;;;;;6249477;28;20183;-80
2023/06/15 05:26:50;;;;;;;8.90;5.43;;;15.90;90.90;;;;;;6250395;28;20045;-80
2023/06/15 05:29:53;;;;;;;9.45;5.65;;;16.00;90.50;;;;;;6249747;28;20384;-80
2023/06/15 05:32:55;;;;;;;11.40;5.22;;;16.10;90.20;;;;;;6249776;28;20128;-80
2023/06/15 05:35:56;;;;;;;9.02;5.72;;;16.00;90.30;;;;;;6249842;28;20072;-79
2023/06/15 05:38:58;;;;;;;8.07;5.72;;;16.10;90.30;;;;;;6249682;28;20052;-80
2023/06/15 05:42:01;;;;;;;10.20;5.78;;;16.20;90.00;;;;;;6249685;28;20041;-81
2023/06/15 05:45:05;;;;;;;9.05;5.43;;;16.30;89.70;;;;;;6249242;28;20388;-79
2023/06/15 05:48:07;;;;;;;10.07;5.63;;;16.40;90.00;;;;;;6249695;28;20139;-81
2023/06/15 05:51:09;;;;;;;10.48;5.45;;;16.40;89.30;;;;;;6249146;28;20049;-80
2023/06/15 05:54:11;;;;;;;9.15;5.50;;;16.50;89.50;;;;;;6249121;28;20449;-80
2023/06/15 05:57:13;;;;;;;8.75;5.40;;;16.60;88.60;;;;;;6248805;28;20049;-80
2023/06/15 06:00:18;;;;;;;8.82;6.00;;;16.70;88.00;;;;;;6248781;28;20411;-79
2023/06/15 06:03:19;;;;;;;9.10;5.60;;;16.80;86.80;;;;;;6248802;28;20376;-80
2023/06/15 06:06:21;;;;;;;8.88;5.65;;;16.90;86.10;;;;;;6249114;28;20053;-81
2023/06/15 06:09:23;;;;;;;9.70;5.55;;;17.00;85.60;;;;;;6249091;28;20050;-80
2023/06/15 06:12:25;;;;;;;7.70;5.60;;;17.10;84.30;;;;;;6248760;28;20484;-80
2023/06/15 06:15:28;;;;;;;10.25;5.75;;;17.10;82.30;;;;;;6248710;28;20072;-81
2023/06/15 06:18:30;;;;;;;9.07;5.95;;;17.20;81.60;;;;;;6248652;28;20053;-80
2023/06/15 06:21:32;;;;;;;6.88;5.20;;;17.30;80.70;;;;;;6248649;28;20045;-81
2023/06/15 06:24:34;;;;;;;8.32;5.22;;;17.40;80.80;;;;;;6248292;28;20049;-79
2023/06/15 06:27:36;;;;;;;6.95;5.10;;;17.50;80.60;;;;;;6248850;28;20049;-80
2023/06/15 06:30:39;;;;;;;9.65;6.47;;;17.50;80.00;;;;;;6248402;28;20179;-79
2023/06/15 06:33:41;;;;;;;9.40;5.57;;;17.50;79.70;;;;;;6248499;28;20053;-80
2023/06/15 06:36:43;;;;;;;9.93;5.07;;;17.40;80.00;;;;;;6248285;28;20045;-80
2023/06/15 06:39:45;;;;;;;9.07;5.53;;;17.50;79.90;;;;;;6248184;28;20410;-80
2023/06/15 06:42:47;;;;;;;9.43;5.53;;;17.60;80.00;;;;;;6248215;28;20046;-80
2023/06/15 06:45:50;;;;;;;10.05;5.18;;;17.60;79.30;;;;;;6247729;28;20076;-75
2023/06/15 06:48:52;;;;;;;10.52;5.85;;;17.70;79.80;;;;;;6247925;28;20132;-74
2023/06/15 06:51:54;;;;;;;9.98;5.78;;;17.60;80.60;;;;;;6248000;28;20053;-75
2023/06/15 06:54:56;;;;;;;9.82;6.32;;;17.60;81.20;;;;;;6248315;28;20045;-74
2023/06/15 06:58:00;;;;;;;8.95;6.25;;;17.50;81.50;;;;;;6247647;28;20360;-74
2023/06/15 07:01:03;;;;;;;10.65;5.50;;;17.60;81.90;;;;;;6246054;28;20045;-74
2023/06/15 07:04:05;;;;;;;12.15;5.40;;;17.60;82.30;;;;;;6247827;28;20514;-75
2023/06/15 07:07:07;;;;;;;7.78;5.15;;;17.80;81.90;;;;;;6247966;28;20045;-75
2023/06/15 07:10:10;;;;;;;8.98;5.68;;;17.90;81.90;;;;;;6247857;28;20041;-74
2023/06/15 07:13:12;;;;;;;8.13;5.37;;;18.10;81.20;;;;;;6248054;28;20132;-75
2023/06/15 07:16:15;;;;;;;8.82;4.95;;;18.10;80.80;;;;;;6247305;28;20055;-76
2023/06/15 07:19:17;;;;;;;7.80;5.13;;;18.30;81.40;;;;;;6247623;28;20076;-75
2023/06/15 07:22:19;;;;;;;8.65;5.40;;;18.50;79.40;;;;;;6247606;28;20049;-75
2023/06/15 07:25:21;;;;;;;8.35;5.15;;;18.60;79.10;;;;;;6247468;28;20052;-74
2023/06/15 07:28:22;;;;;;;8.10;5.18;;;18.70;78.70;;;;;;6247730;28;20049;-75
2023/06/15 07:31:26;;;;;;;7.53;5.32;;;18.80;79.60;;;;;;6247191;28;20487;-75
2023/06/15 07:34:27;;;;;;;9.60;5.38;;;18.90;79.20;;;;;;6247182;28;20534;-75
2023/06/15 07:37:29;;;;;;;9.88;5.97;;;19.00;78.70;;;;;;6247334;28;20052;-75
2023/06/15 07:40:31;;;;;;;8.45;5.40;;;19.20;78.10;;;;;;6247203;28;20050;-75
2023/06/15 07:43:35;;;;;;;9.35;5.57;;;19.30;78.60;;;;;;6246663;28;20515;-75
2023/06/15 07:46:38;;;;;;;;;;;19.40;78.00;;;;;;6238597;28;20128;-74
2023/06/15 07:49:40;;;;;;;9.98;5.40;;;19.40;77.80;;;;;;6251866;28;19936;-75
2023/06/15 07:52:42;;;;;;;9.02;5.57;;;19.50;77.50;;;;;;6252454;28;20049;-75
2023/06/15 07:55:44;;;;;;;9.30;5.57;;;19.60;77.10;;;;;;6251971;28;20511;-74
2023/06/15 07:58:46;;;;;;;10.15;5.07;;;19.70;77.50;;;;;;6229072;28;20050;-75
2023/06/15 08:01:49;;;;;;;6.63;4.78;;;19.80;77.70;;;;;;6231217;28;20042;-75
2023/06/15 08:04:51;;;;;;;8.10;5.60;;;19.80;78.10;;;;;;6251807;28;20045;-75
2023/06/15 08:07:53;;;;;;;8.75;5.70;;;19.90;78.00;;;;;;6251890;28;20502;-75
2023/06/15 08:10:55;;;;;;;9.25;5.70;;;20.00;77.50;;;;;;6251389;28;20187;-74
2023/06/15 08:13:57;;;;;;;9.27;5.32;;;20.10;77.00;;;;;;6251771;28;20053;-74
2023/06/15 08:17:00;;;;;;;7.78;5.03;;;20.10;76.90;;;;;;6251287;28;20062;-74
2023/06/15 08:20:05;;;;;;;9.40;5.07;;;20.20;76.90;;;;;;6251416;28;20045;-76
2023/06/15 08:23:07;;;;;;;7.88;4.95;;;20.30;75.70;;;;;;6250950;28;20049;-74
2023/06/15 08:26:09;;;;;;;7.25;4.45;;;20.30;76.00;;;;;;6251504;28;20049;-75
2023/06/15 08:29:11;;;;;;;6.63;4.80;;;20.40;75.70;;;;;;6250955;28;20046;-75
2023/06/15 08:32:14;;;;;;;6.10;4.25;;;20.40;74.80;;;;;;6251329;28;20092;-75
2023/06/15 08:35:16;;;;;;;9.57;4.63;;;20.60;74.30;;;;;;6251109;28;20048;-75
2023/06/15 08:38:18;;;;;;;8.55;4.32;;;20.70;73.60;;;;;;6250806;28;20389;-75
2023/06/15 08:41:23;;;;;;;7.13;4.70;;;20.70;74.00;;;;;;6250765;28;20407;-75
2023/06/15 08:44:26;;;;;;;11.55;4.95;;;20.70;72.60;;;;;;6250820;28;20053;-80
2023/06/15 08:47:30;;;;;;;8.20;4.30;;;20.70;72.60;;;;;;6250732;28;20112;-80
2023/06/15 08:50:32;;;;;;;6.15;4.20;;;20.90;72.30;;;;;;6250818;28;20049;-79
2023/06/15 08:53:35;;;;;;;6.72;4.15;;;20.90;72.50;;;;;;6251043;28;20135;-79
2023/06/15 08:56:38;;;;;;;5.78;4.07;;;20.90;71.60;;;;;;6250664;28;20052;-78
2023/06/15 08:59:40;;;;;;;7.53;4.47;;;21.00;71.60;;;;;;6248872;28;20411;-79
2023/06/15 09:02:46;;;;;;;8.00;4.57;;;21.00;70.30;;;;;;6250074;28;20191;-79
2023/06/15 09:05:48;;;;;;;6.07;4.38;;;21.10;70.50;;;;;;6250672;28;20041;-79
2023/06/15 09:08:51;;;;;;;7.13;4.07;;;21.10;69.50;;;;;;6250454;28;20045;-79
2023/06/15 09:11:53;;;;;;;6.82;3.97;;;21.20;71.30;;;;;;6241807;28;20060;-79
2023/06/15 09:14:55;;;;;;;5.90;3.65;;;21.20;69.50;;;;;;6240110;28;20049;-79
2023/06/15 09:18:00;;;;;;;8.98;4.30;;;21.20;68.60;;;;;;6246819;28;20050;-80
2023/06/15 09:21:02;;;;;;;6.10;3.95;;;21.30;67.80;;;;;;6247002;28;20058;-75
2023/06/15 09:24:05;;;;;;;5.60;3.80;;;21.30;66.60;;;;;;6244592;28;20060;-76
2023/06/15 09:27:16;;;;;;;7.30;4.00;;;21.40;68.40;;;;;;6246935;28;20054;-80
2023/06/15 09:30:18;;;;;;;7.70;4.18;;;21.40;67.60;;;;;;6246204;28;20045;-81
2023/06/15 09:33:21;;;;;;;5.80;3.35;;;21.60;67.40;;;;;;6246675;28;20510;-81
2023/06/15 09:36:23;;;;;;;5.80;3.47;;;21.60;66.90;;;;;;6246654;28;20046;-80
2023/06/15 09:39:25;;;;;;;7.30;4.00;;;21.70;65.50;;;;;;6246725;28;20053;-75
2023/06/15 09:42:27;;;;;;;5.57;3.53;;;21.70;65.70;;;;;;6246195;28;20057;-77
2023/06/15 09:45:29;;;;;;;5.63;3.70;;;21.80;65.20;;;;;;6246711;28;20053;-77
2023/06/15 09:48:32;;;;;;;4.93;3.60;;;21.80;65.30;;;;;;6246076;28;20049;-77
2023/06/15 09:51:36;;;;;;;5.88;3.40;;;21.80;63.50;;;;;;6246196;28;20037;-77
2023/06/15 09:54:40;;;;;;;5.85;3.42;;;21.90;61.60;;;;;;6246060;28;20061;-77
2023/06/15 09:57:42;;;;;;;6.03;3.45;;;22.00;60.50;;;;;;6246133;28;20071;-78
2023/06/15 10:00:44;;;;;;;5.10;2.67;;;22.10;60.50;;;;;;6245933;28;20057;-77
2023/06/15 10:03:55;;;;;;;5.32;2.90;;;22.20;59.00;;;;;;6243889;28;20056;-77
2023/06/15 10:07:03;;;;;;;5.25;3.13;;;22.30;59.30;;;;;;6245315;28;20143;-77
2023/06/15 10:10:07;;;;;;;4.75;3.15;;;22.30;60.10;;;;;;6245183;28;20045;-77
2023/06/15 10:13:14;;;;;;;5.78;3.25;;;22.40;58.70;;;;;;6245298;28;20080;-77
2023/06/15 10:16:20;;;;;;;7.00;3.25;;;22.50;58.30;;;;;;6245245;28;20365;-77
2023/06/15 10:19:25;;;;;;;5.95;3.25;;;22.50;58.20;;;;;;6245197;28;20056;-77
2023/06/15 10:22:27;;;;;;;5.47;3.20;;;22.50;59.70;;;;;;6245265;28;20488;-77
2023/06/15 10:25:31;;;;;;;4.68;3.30;;;22.60;60.80;;;;;;6243437;28;20071;-77
2023/06/15 10:28:37;;;;;;;6.00;3.30;;;22.70;59.90;;;;;;6243338;28;20566;-77
2023/06/15 10:31:48;;;;;;;6.47;3.42;;;22.70;58.10;;;;;;6244902;28;20103;-78
2023/06/15 10:34:57;;;;;;;7.35;3.45;;;22.90;58.90;;;;;;6245388;28;20077;-78
2023/06/15 10:38:15;;;;;;;5.90;3.60;;;22.90;59.20;;;;;;6245017;28;20045;-79
2023/06/15 10:41:19;;;;;;;5.13;3.40;;;22.90;57.80;;;;;;6245215;28;20218;-79
2023/06/15 10:44:21;;;;;;;5.85;3.35;;;22.90;58.10;;;;;;6245043;28;20427;-78
2023/06/15 10:47:23;;;;;;;7.30;3.65;;;22.90;57.70;;;;;;6244737;28;20411;-79
2023/06/15 10:50:26;;;;;;;6.70;4.00;;;23.00;58.90;;;;;;6244992;28;20053;-79
2023/06/15 10:53:35;;;;;;;5.85;3.33;;;23.10;59.80;;;;;;6244762;28;20049;-78
2023/06/15 10:56:49;;;;;;;6.22;3.80;;;23.20;58.60;;;;;;6244860;28;20407;-78
2023/06/15 10:59:54;;;;;;;8.05;3.38;;;23.30;57.40;;;;;;6244361;28;20061;-79
2023/06/15 11:02:59;;;;;;;5.05;3.40;;;23.30;56.50;;;;;;6244988;28;20049;-79
2023/06/15 11:06:06;;;;;;;7.22;3.10;;;23.40;55.40;;;;;;6244599;28;20053;-78
2023/06/15 11:09:14;;;;;;;6.63;3.50;;;23.50;55.90;;;;;;6245013;28;20250;-78
2023/06/15 11:12:36;;;;;;;8.00;3.90;;;23.60;57.30;;;;;;6244874;28;20419;-78
2023/06/15 11:15:40;;;;;;;8.30;3.70;;;23.70;57.60;;;;;;6244902;28;20057;-79
2023/06/15 11:18:57;;;;;;;6.28;3.60;;;23.60;57.30;;;;;;6244385;28;20057;-79
2023/06/15 11:22:04;;;;;;;6.53;3.20;;;23.70;58.00;;;;;;6243985;28;20049;-77
2023/06/15 11:25:08;;;;;;;6.45;3.40;;;23.80;57.90;;;;;;6242167;28;20050;-77
2023/06/15 11:28:11;;;;;;;5.93;3.30;;;23.80;57.20;;;;;;6244588;28;20533;-77
2023/06/15 11:31:16;;;;;;;6.80;3.60;;;23.90;57.30;;;;;;6244650;28;20098;-77
2023/06/15 11:34:18;;;;;;;5.07;3.38;;;24.00;57.10;;;;;;6244374;28;20050;-77
2023/06/15 11:37:22;;;;;;;7.37;3.33;;;24.00;57.40;;;;;;6245307;28;20080;-77
2023/06/15 11:40:24;;;;;;;6.75;3.70;;;24.00;57.40;;;;;;6245697;28;20415;-77
2023/06/15 11:43:30;;;;;;;4.72;3.58;;;24.20;57.40;;;;;;6254738;28;20096;-78
2023/06/15 11:46:32;;;;;;;5.75;3.15;;;24.20;54.90;;;;;;6244178;28;20045;-78
2023/06/15 11:49:36;;;;;;;5.15;3.03;;;24.20;54.30;;;;;;6244107;28;20057;-77
2023/06/15 11:52:46;;;;;;;5.13;3.35;;;24.20;53.20;;;;;;6244378;28;20070;-77
2023/06/15 11:55:48;;;;;;;6.35;3.25;;;24.20;53.40;;;;;;6244239;28;20049;-79
2023/06/15 11:58:50;;;;;;;6.25;3.40;;;24.40;54.90;;;;;;6246158;28;20041;-78
2023/06/15 12:01:53;;;;;;;5.95;3.60;;;24.50;55.00;;;;;;6246287;28;20049;-78
2023/06/15 12:04:57;;;;;;;;;;;24.40;54.60;;;;;;6247776;28;20554;-79
2023/06/15 12:08:01;;;;;;;4.95;3.20;;;24.60;54.40;;;;;;6247100;28;20263;-78
2023/06/15 12:11:05;;;;;;;6.75;3.08;;;24.60;53.10;;;;;;6247750;28;20071;-79
2023/06/15 12:14:09;;;;;;;6.38;3.20;;;24.70;54.00;;;;;;6247020;28;20045;-78
2023/06/15 12:17:11;;;;;;;4.55;2.90;;;24.90;52.60;;;;;;6244675;28;20080;-79
2023/06/15 12:20:14;;;;;;;5.55;3.03;;;25.00;51.30;;;;;;6246593;28;20289;-78
2023/06/15 12:23:31;;;;;;;7.65;2.83;;;25.20;51.60;;;;;;6246537;28;20123;-79
2023/06/15 12:26:33;;;;;;;4.75;2.70;;;25.50;50.20;;;;;;6246644;28;20056;-78
2023/06/15 12:29:35;;;;;;;5.05;3.08;;;25.60;49.90;;;;;;6246509;28;20053;-79
2023/06/15 12:32:43;;;;;;;5.80;3.20;;;25.60;48.40;;;;;;6247789;28;20037;-78
2023/06/15 12:35:45;;;;;;;4.45;2.85;;;25.60;49.10;;;;;;6250820;28;20053;-79
2023/06/15 12:38:50;;;;;;;5.10;2.60;;;25.80;48.50;;;;;;6250565;28;20053;-79
2023/06/15 12:41:52;;;;;;;4.18;2.55;;;25.70;48.30;;;;;;6250204;28;20052;-79
2023/06/15 12:44:54;;;;;;;4.38;2.88;;;25.80;48.50;;;;;;6250525;28;20045;-79
2023/06/15 12:47:57;;;;;;;5.57;2.70;;;25.60;48.30;;;;;;6251545;28;20049;-87
2023/06/15 12:51:00;;;;;;;6.28;2.97;;;25.60;48.50;;;;;;6250709;28;20047;-85
2023/06/15 12:54:07;;;;;;;4.00;2.75;;;25.70;50.00;;;;;;6251190;28;20045;-86
2023/06/15 12:57:09;;;;;;;5.03;3.10;;;25.60;50.10;;;;;;6250959;28;20050;-85
2023/06/15 13:00:12;;;;;;;6.63;3.30;;;25.90;50.40;;;;;;6251312;28;20060;-85
2023/06/15 13:03:15;;;;;;;6.30;3.10;;;26.00;48.90;;;;;;6251063;28;20487;-82
2023/06/15 13:06:17;;;;;;;5.90;3.03;;;25.90;49.60;;;;;;6251902;28;20045;-89
2023/06/15 13:09:20;;;;;;;6.40;3.20;;;25.90;50.20;;;;;;6251807;28;20073;-83
2023/06/15 13:12:22;;;;;;;;;;;26.00;49.60;;;;;;6250333;28;20037;-87
2023/06/15 13:15:24;;;;;;;5.43;3.00;;;26.00;49.50;;;;;;6250325;28;20382;-83
2023/06/15 13:18:26;;;;;;;5.97;3.20;;;26.10;49.30;;;;;;6250135;28;20304;-88
2023/06/15 13:21:28;;;;;;;4.93;3.10;;;26.10;48.20;;;;;;6250130;28;20050;-86
2023/06/15 13:24:31;;;;;;;6.05;3.05;;;26.20;49.60;;;;;;6250333;28;20407;-87
2023/06/15 13:27:37;;;;;;;4.20;2.88;;;26.20;49.60;;;;;;6251182;28;20479;-87
2023/06/15 13:30:39;;;;;;;6.22;3.30;;;26.30;49.10;;;;;;6251184;28;20046;-87
2023/06/15 13:33:41;;;;;;;4.35;2.90;;;26.10;48.30;;;;;;6251376;28;20068;-87
2023/06/15 13:36:43;;;;;;;5.10;3.00;;;26.00;48.10;;;;;;6251062;28;20052;-86
2023/06/15 13:39:47;;;;;;;7.05;2.92;;;26.20;48.80;;;;;;6250914;28;20041;-87
2023/06/15 13:42:48;;;;;;;4.75;2.90;;;26.40;48.40;;;;;;6250889;28;20060;-86
2023/06/15 13:45:50;;;;;;;5.03;3.10;;;26.50;47.20;;;;;;6250135;28;20045;-88
2023/06/15 13:48:52;;;;;;;6.03;3.10;;;26.50;48.00;;;;;;6251106;28;20045;-86
2023/06/15 13:51:54;;;;;;;5.53;2.75;;;26.20;46.70;;;;;;6250569;28;20056;-86
2023/06/15 13:54:58;;;;;;;6.30;3.20;;;26.20;46.90;;;;;;6250301;28;20072;-86
2023/06/15 13:58:00;;;;;;;4.57;2.72;;;26.00;47.50;;;;;;6243302;28;20061;-87
2023/06/15 14:01:02;;;;;;;5.57;2.78;;;26.00;46.70;;;;;;6222183;28;20085;-86
2023/06/15 14:04:05;;;;;;;5.00;3.20;;;26.30;46.90;;;;;;6222161;28;20123;-85
2023/06/15 14:07:07;;;;;;;6.57;3.33;;;26.40;48.10;;;;;;6221559;28;20046;-85
2023/06/15 14:10:13;;;;;;;5.45;3.17;;;26.60;47.70;;;;;;6221810;28;20308;-86
2023/06/15 14:13:15;;;;;;;5.15;3.15;;;26.50;48.00;;;;;;6239735;28;20049;-87
2023/06/15 14:16:19;;;;;;;7.18;3.90;;;26.30;47.50;;;;;;6246222;28;20057;-88
2023/06/15 14:19:22;;;;;;;5.75;3.08;;;26.10;47.90;;;;;;6246642;28;20405;-87
2023/06/15 14:22:26;;;;;;;6.05;3.40;;;26.10;48.10;;;;;;6246435;28;20053;-86
2023/06/15 14:25:29;;;;;;;5.43;2.80;;;26.10;48.60;;;;;;6244239;28;20053;-86
2023/06/15 14:28:32;;;;;;;5.85;2.90;;;26.60;48.90;;;;;;6245909;28;20049;-85
2023/06/15 14:31:34;;;;;;;6.18;2.92;;;26.90;47.80;;;;;;6245530;28;20041;-80
2023/06/15 14:34:35;;;;;;;7.30;4.85;;;27.00;48.10;;;;;;6245036;28;20542;-79
2023/06/15 14:37:37;;;;;;;6.82;3.33;;;26.50;48.00;;;;;;6245267;28;20052;-80
2023/06/15 14:40:41;;;;;;;5.45;3.20;;;26.20;47.80;;;;;;6244836;28;20053;-80
2023/06/15 14:43:42;;;;;;;5.38;3.45;;;26.10;48.30;;;;;;6244632;28;20061;-80
2023/06/15 14:46:44;;;;;;;6.00;3.20;;;26.40;48.60;;;;;;6244638;28;20095;-81
2023/06/15 14:49:46;;;;;;;4.28;2.90;;;26.80;48.40;;;;;;6245283;28;20055;-80
2023/06/15 14:52:48;;;;;;;5.05;3.13;;;27.00;47.30;;;;;;6244896;28;20057;-81
2023/06/15 14:55:51;;;;;;;5.75;2.83;;;26.70;47.80;;;;;;6245047;28;20057;-81
2023/06/15 14:58:53;;;;;;;4.22;2.78;;;26.40;47.80;;;;;;6244635;28;20131;-81
2023/06/15 15:01:55;;;;;;;6.47;2.97;;;26.20;48.80;;;;;;6244406;28;20423;-80
2023/06/15 15:04:57;;;;;;;4.72;2.78;;;26.60;48.50;;;;;;6244807;28;20057;-81
2023/06/15 15:07:59;;;;;;;5.95;3.20;;;26.40;47.90;;;;;;6244446;28;20042;-81
2023/06/15 15:11:02;;;;;;;5.22;2.72;;;26.90;48.10;;;;;;6244403;28;20060;-84
2023/06/15 15:14:04;;;;;;;4.25;3.10;;;27.20;47.30;;;;;;6265882;28;20530;-82
2023/06/15 15:17:06;;;;;;;4.72;3.10;;;27.30;47.00;;;;;;6266894;28;20550;-81
2023/06/15 15:20:09;;;;;;;4.57;2.90;;;27.60;47.50;;;;;;6259105;28;20052;-82
2023/06/15 15:23:11;;;;;;;9.13;2.72;;;27.80;46.80;;;;;;6269169;28;20517;-81
2023/06/15 15:26:14;;;;;;;4.82;3.08;;;27.60;46.40;;;;;;6266950;28;20045;-80
2023/06/15 15:29:16;;;;;;;4.72;2.85;;;27.70;46.60;;;;;;6250402;28;20498;-80
2023/06/15 15:32:18;;;;;;;5.27;3.27;;;27.70;46.20;;;;;;6244003;28;20563;-81
2023/06/15 15:35:22;;;;;;;4.82;2.88;;;27.70;45.10;;;;;;6244382;28;20049;-80
2023/06/15 15:38:24;;;;;;;4.10;2.85;;;28.00;45.80;;;;;;6250769;28;20194;-80
2023/06/15 15:41:27;;;;;;;4.78;3.00;;;28.00;45.20;;;;;;6269085;28;20060;-81
2023/06/15 15:44:29;;;;;;;5.38;2.80;;;27.90;44.80;;;;;;6269043;28;20058;-80
2023/06/15 15:47:31;;;;;;;4.65;2.65;;;27.90;45.50;;;;;;6259510;28;20045;-80
2023/06/15 15:50:33;;;;;;;6.90;3.20;;;27.90;46.10;;;;;;6261166;28;20053;-80
2023/06/15 15:53:35;;;;;;;5.20;2.58;;;27.90;45.80;;;;;;6268655;28;20053;-80